Time;durP1;ratioP1;P1;durP2;ratioP2;P2;SDS_P1;SDS_P2;PMS_P1;PMS_P2;Temp;Humidity;BMP_temperature;BMP_pressure;BME280_temperature;BME280_humidity;BME280_pressure;Samples;Min_cycle;Max_cycle;Signal;HPM_P1;HPM_P2
2023/07/04 00:01:14;;;;;;;4.47;4.07;;;;;;;;;;5032175;28;20947;-64
2023/07/04 00:03:41;;;;;;;4.57;4.30;;;;;;;;;;5032273;28;20419;-64
2023/07/04 00:06:10;;;;;;;3.80;3.50;;;;;;;;;;5032466;28;20453;-64
2023/07/04 00:08:36;;;;;;;6.50;3.90;;;;;;;;;;5031967;28;20451;-64
2023/07/04 00:11:03;;;;;;;4.57;4.17;;;;;;;;;;5032114;28;20554;-64
2023/07/04 00:13:29;;;;;;;4.90;3.90;;;;;;;;;;5032593;28;20414;-64
2023/07/04 00:15:58;;;;;;;7.30;3.50;;;;;;;;;;5031843;28;20918;-64
2023/07/04 00:18:25;;;;;;;3.87;3.50;;;;;;;;;;5032291;28;20462;-64
2023/07/04 00:20:55;;;;;;;3.80;3.57;;;;;;;;;;5031986;28;20435;-64
2023/07/04 00:23:39;;;;;;;3.73;3.43;;;;;;;;;;5032091;28;20418;-64
2023/07/04 00:26:07;;;;;;;3.97;3.67;;;;;;;;;;5032081;28;20410;-64
2023/07/04 00:28:34;;;;;;;5.53;3.60;;;;;;;;;;5032213;28;20427;-64
2023/07/04 00:31:02;;;;;;;4.53;4.13;;;;;;;;;;5032090;28;20473;-64
2023/07/04 00:33:30;;;;;;;4.63;3.60;;;;;;;;;;5032104;28;20480;-64
2023/07/04 00:36:07;;;;;;;6.20;3.10;;;;;;;;;;5032300;28;20505;-64
2023/07/04 00:38:33;;;;;;;3.30;3.10;;;;;;;;;;5032083;28;20406;-64
2023/07/04 00:41:22;;;;;;;3.63;3.43;;;;;;;;;;5030617;28;20434;-64
2023/07/04 00:43:57;;;;;;;4.13;3.23;;;;;;;;;;5031886;28;20415;-64
2023/07/04 00:46:36;;;;;;;3.13;2.90;;;;;;;;;;5033605;28;20419;-64
2023/07/04 00:49:06;;;;;;;2.97;2.80;;;;;;;;;;5035993;28;20528;-64
2023/07/04 00:51:32;;;;;;;5.80;2.93;;;;;;;;;;5036102;28;20383;-64
2023/07/04 00:53:58;;;;;;;3.87;3.40;;;;;;;;;;5035893;28;20408;-64
2023/07/04 00:56:26;;;;;;;3.83;2.97;;;;;;;;;;5035941;28;20407;-64
2023/07/04 00:58:53;;;;;;;3.43;2.80;;;;;;;;;;5035611;28;20480;-64
2023/07/04 01:01:19;;;;;;;3.50;3.30;;;;;;;;;;5035519;28;20407;-64
2023/07/04 01:03:48;;;;;;;3.03;2.87;;;;;;;;;;5035765;28;20955;-64
2023/07/04 01:06:14;;;;;;;3.03;2.70;;;;;;;;;;5035719;28;20975;-64
2023/07/04 01:08:42;;;;;;;3.17;3.00;;;;;;;;;;5035929;28;20426;-64
2023/07/04 01:11:15;;;;;;;2.40;2.30;;;;;;;;;;5036932;28;20471;-64
2023/07/04 01:13:45;;;;;;;2.70;2.17;;;;;;;;;;5035670;28;20467;-64
2023/07/04 01:16:12;;;;;;;2.77;2.47;;;;;;;;;;5035498;28;20549;-64
2023/07/04 01:18:40;;;;;;;2.77;2.67;;;;;;;;;;5035687;28;20419;-64
2023/07/04 01:21:08;;;;;;;2.50;2.20;;;;;;;;;;5035410;28;20412;-64
2023/07/04 01:23:54;;;;;;;2.70;2.50;;;;;;;;;;5035454;28;20925;-64
2023/07/04 01:26:25;;;;;;;2.60;2.50;;;;;;;;;;5035624;28;20778;-64
2023/07/04 01:28:53;;;;;;;2.93;2.50;;;;;;;;;;5035197;28;20430;-64
2023/07/04 01:31:20;;;;;;;2.73;2.00;;;;;;;;;;5034067;28;20907;-64
2023/07/04 01:33:48;;;;;;;2.87;2.63;;;;;;;;;;5035258;28;20436;-64
2023/07/04 01:36:19;;;;;;;2.30;2.20;;;;;;;;;;5035165;28;20538;-64
2023/07/04 01:38:47;;;;;;;2.80;2.70;;;;;;;;;;5035159;28;20432;-64
2023/07/04 01:41:13;;;;;;;2.77;2.57;;;;;;;;;;5034881;28;20898;-64
2023/07/04 01:43:39;;;;;;;4.50;2.27;;;;;;;;;;5034945;28;20443;-64
2023/07/04 01:46:05;;;;;;;2.83;2.73;;;;;;;;;;5034984;28;20408;-64
2023/07/04 01:48:31;;;;;;;4.30;3.13;;;;;;;;;;5034985;28;20899;-64
2023/07/04 01:50:57;;;;;;;2.37;2.17;;;;;;;;;;5034727;28;20478;-64
2023/07/04 01:53:23;;;;;;;3.70;2.33;;;;;;;;;;5034842;28;20838;-64
2023/07/04 01:55:49;;;;;;;3.47;2.70;;;;;;;;;;5034785;28;20449;-64
2023/07/04 01:58:15;;;;;;;2.90;2.70;;;;;;;;;;5034150;28;20414;-64
2023/07/04 02:00:41;;;;;;;2.53;2.40;;;;;;;;;;5034791;28;20492;-64
2023/07/04 02:03:07;;;;;;;3.10;2.87;;;;;;;;;;5033331;28;20423;-64
2023/07/04 02:05:33;;;;;;;2.73;2.63;;;;;;;;;;5034605;28;20517;-64
2023/07/04 02:07:59;;;;;;;4.33;2.47;;;;;;;;;;5034368;28;20421;-64
2023/07/04 02:10:26;;;;;;;4.40;2.97;;;;;;;;;;5034558;28;20824;-64
2023/07/04 02:12:52;;;;;;;3.00;2.90;;;;;;;;;;5034405;28;20811;-64
2023/07/04 02:15:22;;;;;;;4.80;3.00;;;;;;;;;;5034355;28;20441;-64
2023/07/04 02:17:52;;;;;;;5.57;2.80;;;;;;;;;;5034509;28;20432;-64
2023/07/04 02:20:19;;;;;;;3.50;3.30;;;;;;;;;;5034380;28;20408;-64
2023/07/04 02:22:45;;;;;;;3.50;2.90;;;;;;;;;;5034269;28;20447;-64
2023/07/04 02:25:14;;;;;;;2.70;2.60;;;;;;;;;;5034134;28;20499;-64
2023/07/04 02:27:40;;;;;;;3.83;2.70;;;;;;;;;;5034187;28;20409;-64
2023/07/04 02:30:07;;;;;;;5.03;3.10;;;;;;;;;;5033948;28;21093;-64
2023/07/04 02:32:33;;;;;;;3.57;3.27;;;;;;;;;;5034018;28;20885;-64
2023/07/04 02:34:59;;;;;;;4.60;3.20;;;;;;;;;;5034072;28;20427;-64
2023/07/04 02:37:25;;;;;;;15.23;2.80;;;;;;;;;;5032802;28;20496;-64
2023/07/04 02:39:52;;;;;;;2.20;2.10;;;;;;;;;;5033750;28;20533;-64
2023/07/04 02:42:20;;;;;;;5.80;2.97;;;;;;;;;;5033859;28;20502;-64
2023/07/04 02:44:50;;;;;;;3.00;2.80;;;;;;;;;;5033850;28;20963;-64
2023/07/04 02:47:17;;;;;;;3.17;3.00;;;;;;;;;;5032537;28;20882;-64
2023/07/04 02:49:44;;;;;;;5.80;3.17;;;;;;;;;;5032383;28;20469;-64
2023/07/04 02:52:12;;;;;;;2.97;2.77;;;;;;;;;;5033614;28;20520;-64
2023/07/04 02:54:38;;;;;;;3.20;3.00;;;;;;;;;;5033362;28;20416;-64
2023/07/04 02:57:05;;;;;;;5.40;3.17;;;;;;;;;;5033289;28;20805;-64
2023/07/04 02:59:35;;;;;;;6.37;2.73;;;;;;;;;;5033536;28;20475;-64
2023/07/04 03:02:01;;;;;;;4.53;2.80;;;;;;;;;;5033737;28;20441;-64
2023/07/04 03:04:27;;;;;;;2.90;2.70;;;;;;;;;;5033489;28;21135;-64
2023/07/04 03:06:53;;;;;;;4.30;3.07;;;;;;;;;;5033228;28;20417;-64
2023/07/04 03:09:20;;;;;;;4.10;2.70;;;;;;;;;;5031340;28;20525;-64
2023/07/04 03:11:45;;;;;;;2.83;2.63;;;;;;;;;;5033203;28;20406;-64
2023/07/04 03:14:11;;;;;;;3.47;3.20;;;;;;;;;;5033023;28;20759;-64
2023/07/04 03:16:40;;;;;;;2.57;2.47;;;;;;;;;;5033236;28;20414;-64
2023/07/04 03:19:08;;;;;;;7.10;3.30;;;;;;;;;;5033009;28;20418;-64
2023/07/04 03:21:34;;;;;;;3.13;2.60;;;;;;;;;;5032998;28;20512;-64
2023/07/04 03:24:00;;;;;;;2.60;2.50;;;;;;;;;;5033138;28;20875;-64
2023/07/04 03:26:26;;;;;;;2.97;2.77;;;;;;;;;;5033063;28;20413;-64
2023/07/04 03:28:52;;;;;;;2.77;2.77;;;;;;;;;;5031748;28;20429;-64
2023/07/04 03:31:18;;;;;;;3.10;3.00;;;;;;;;;;5033316;28;20932;-64
2023/07/04 03:33:44;;;;;;;2.53;2.43;;;;;;;;;;5031490;28;20421;-64
2023/07/04 03:36:12;;;;;;;3.63;3.20;;;;;;;;;;5031588;28;20444;-64
2023/07/04 03:38:38;;;;;;;8.10;2.80;;;;;;;;;;5031694;28;20932;-64
2023/07/04 03:41:09;;;;;;;3.73;2.90;;;;;;;;;;5032719;28;20480;-64
2023/07/04 03:43:35;;;;;;;5.23;2.60;;;;;;;;;;5032734;28;20791;-64
2023/07/04 03:46:02;;;;;;;2.80;2.60;;;;;;;;;;5032999;28;20879;-64
2023/07/04 03:48:30;;;;;;;4.20;3.03;;;;;;;;;;5031480;28;20423;-64
2023/07/04 03:50:58;;;;;;;2.80;2.70;;;;;;;;;;5032571;28;20559;-64
2023/07/04 03:53:24;;;;;;;3.17;2.97;;;;;;;;;;5032417;28;20413;-64
2023/07/04 03:55:50;;;;;;;2.70;2.50;;;;;;;;;;5032472;28;20803;-64
2023/07/04 03:58:22;;;;;;;2.90;2.67;;;;;;;;;;5032488;28;20951;-64
2023/07/04 04:00:50;;;;;;;6.53;2.90;;;;;;;;;;5032644;28;20520;-64
2023/07/04 04:03:16;;;;;;;2.60;2.60;;;;;;;;;;5032220;28;20920;-64
2023/07/04 04:05:42;;;;;;;2.80;2.60;;;;;;;;;;5032311;28;20425;-64
2023/07/04 04:08:08;;;;;;;4.23;2.53;;;;;;;;;;5031984;28;20414;-64
2023/07/04 04:10:34;;;;;;;4.13;3.90;;;;;;;;;;5032346;28;20821;-64
2023/07/04 04:13:00;;;;;;;5.37;4.83;;;;;;;;;;5032323;28;20886;-64
2023/07/04 04:15:27;;;;;;;4.63;3.83;;;;;;;;;;5032360;28;20441;-64
2023/07/04 04:17:53;;;;;;;4.07;3.77;;;;;;;;;;5032340;28;20754;-64
2023/07/04 04:20:19;;;;;;;7.87;3.30;;;;;;;;;;5032356;28;20447;-64
2023/07/04 04:22:48;;;;;;;3.47;2.70;;;;;;;;;;5031947;28;20420;-63
2023/07/04 04:25:16;;;;;;;4.93;2.57;;;;;;;;;;5032229;28;20441;-63
2023/07/04 04:27:42;;;;;;;3.23;2.97;;;;;;;;;;5032224;28;20412;-63
2023/07/04 04:30:09;;;;;;;4.90;2.73;;;;;;;;;;5032110;28;20469;-63
2023/07/04 04:32:38;;;;;;;2.90;2.67;;;;;;;;;;5032193;28;20501;-63
2023/07/04 04:35:05;;;;;;;2.83;2.73;;;;;;;;;;5032264;28;20451;-63
2023/07/04 04:37:31;;;;;;;4.37;2.90;;;;;;;;;;5031981;28;20449;-63
2023/07/04 04:40:00;;;;;;;3.10;2.90;;;;;;;;;;5032192;28;20422;-63
2023/07/04 04:42:27;;;;;;;2.50;2.40;;;;;;;;;;5032086;28;20479;-63
2023/07/04 04:44:56;;;;;;;3.43;3.20;;;;;;;;;;5032287;28;20420;-63
2023/07/04 04:47:23;;;;;;;2.57;2.47;;;;;;;;;;5032112;28;20442;-63
2023/07/04 04:49:50;;;;;;;2.80;2.70;;;;;;;;;;5032030;28;20466;-63
2023/07/04 04:52:16;;;;;;;2.73;2.63;;;;;;;;;;5030934;28;20764;-63
2023/07/04 04:54:44;;;;;;;3.07;2.90;;;;;;;;;;5031926;28;20414;-63
2023/07/04 04:57:10;;;;;;;2.77;2.67;;;;;;;;;;5030845;28;20416;-63
2023/07/04 04:59:36;;;;;;;2.73;2.33;;;;;;;;;;5031680;28;20445;-63
2023/07/04 05:02:02;;;;;;;6.63;3.17;;;;;;;;;;5031859;28;20449;-63
2023/07/04 05:04:28;;;;;;;2.20;2.10;;;;;;;;;;5031445;28;20447;-63
2023/07/04 05:06:54;;;;;;;2.73;2.57;;;;;;;;;;5031810;28;20418;-63
2023/07/04 05:09:20;;;;;;;2.43;2.37;;;;;;;;;;5031535;28;20481;-63
2023/07/04 05:11:48;;;;;;;2.33;2.23;;;;;;;;;;5031444;28;20426;-63
2023/07/04 05:14:14;;;;;;;6.57;2.70;;;;;;;;;;5031727;28;20448;-63
2023/07/04 05:16:40;;;;;;;3.30;3.07;;;;;;;;;;5031590;28;20508;-63
2023/07/04 05:19:06;;;;;;;3.43;2.77;;;;;;;;;;5031690;28;20421;-63
2023/07/04 05:21:34;;;;;;;2.67;2.57;;;;;;;;;;5031540;28;20438;-63
2023/07/04 05:24:03;;;;;;;2.73;2.63;;;;;;;;;;5031968;28;20466;-63
2023/07/04 05:26:29;;;;;;;2.63;2.53;;;;;;;;;;5031683;28;20434;-63
2023/07/04 05:28:57;;;;;;;3.00;2.80;;;;;;;;;;5031664;28;20505;-63
2023/07/04 05:31:24;;;;;;;3.20;3.10;;;;;;;;;;5031555;28;20415;-63
2023/07/04 05:33:52;;;;;;;4.43;3.00;;;;;;;;;;5033350;28;20407;-63
2023/07/04 05:36:22;;;;;;;3.17;3.00;;;;;;;;;;5034985;28;20901;-63
2023/07/04 05:38:52;;;;;;;2.70;2.50;;;;;;;;;;5034934;28;20399;-63
2023/07/04 05:41:19;;;;;;;6.43;3.07;;;;;;;;;;5034913;28;20403;-63
2023/07/04 05:43:45;;;;;;;2.53;2.37;;;;;;;;;;5034673;28;20425;-63
2023/07/04 05:46:14;;;;;;;2.70;2.60;;;;;;;;;;5034706;28;20501;-63
2023/07/04 05:48:41;;;;;;;3.83;2.70;;;;;;;;;;5034719;28;20968;-63
2023/07/04 05:51:08;;;;;;;2.60;2.40;;;;;;;;;;5034762;28;20465;-63
2023/07/04 05:53:35;;;;;;;4.53;3.10;;;;;;;;;;5034894;28;20422;-63
2023/07/04 05:56:06;;;;;;;3.07;2.80;;;;;;;;;;5034718;28;20450;-63
2023/07/04 05:58:32;;;;;;;4.13;3.73;;;;;;;;;;5034730;28;20850;-63
2023/07/04 06:01:03;;;;;;;3.70;3.40;;;;;;;;;;5034191;28;20459;-63
2023/07/04 06:03:31;;;;;;;8.90;3.20;;;;;;;;;;5034754;28;20505;-63
2023/07/04 06:06:00;;;;;;;3.03;3.03;;;;;;;;;;5034545;28;20503;-63
2023/07/04 06:08:28;;;;;;;8.17;2.90;;;;;;;;;;5034324;28;20473;-63
2023/07/04 06:10:58;;;;;;;3.43;3.20;;;;;;;;;;5034302;28;20528;-63
2023/07/04 06:13:24;;;;;;;4.63;2.80;;;;;;;;;;5034291;28;20904;-63
2023/07/04 06:15:50;;;;;;;5.10;2.97;;;;;;;;;;5034405;28;20458;-64
2023/07/04 06:18:16;;;;;;;2.60;2.40;;;;;;;;;;5034178;28;20915;-64
2023/07/04 06:20:41;;;;;;;6.27;2.37;;;;;;;;;;5034178;28;20953;-64
2023/07/04 06:23:07;;;;;;;2.63;2.63;;;;;;;;;;5032948;28;20454;-64
2023/07/04 06:25:33;;;;;;;2.57;2.47;;;;;;;;;;5034059;28;20497;-64
2023/07/04 06:28:00;;;;;;;4.50;4.17;;;;;;;;;;5032651;28;20449;-64
2023/07/04 06:30:29;;;;;;;3.67;3.57;;;;;;;;;;5032922;28;20947;-64
2023/07/04 06:32:56;;;;;;;3.20;3.00;;;;;;;;;;5033958;28;20408;-64
2023/07/04 06:35:22;;;;;;;16.50;12.23;;;;;;;;;;5033984;28;20511;-64
2023/07/04 06:37:48;;;;;;;18.93;14.33;;;;;;;;;;5033876;28;20494;-64
2023/07/04 06:40:18;;;;;;;2.23;2.13;;;;;;;;;;5032557;28;20787;-64
2023/07/04 06:42:46;;;;;;;5.43;4.90;;;;;;;;;;5034089;28;20431;-64
2023/07/04 06:45:12;;;;;;;14.00;12.47;;;;;;;;;;5033517;28;20440;-64
2023/07/04 06:47:40;;;;;;;2.63;2.43;;;;;;;;;;5034084;28;20502;-64
2023/07/04 06:50:07;;;;;;;5.50;2.47;;;;;;;;;;5033213;28;20858;-64
2023/07/04 06:52:34;;;;;;;3.07;2.77;;;;;;;;;;5033753;28;20416;-63
2023/07/04 06:55:00;;;;;;;2.17;2.07;;;;;;;;;;5033440;28;20767;-63
2023/07/04 06:57:26;;;;;;;3.00;2.77;;;;;;;;;;5033554;28;20406;-63
2023/07/04 06:59:52;;;;;;;2.73;2.63;;;;;;;;;;5032105;28;20927;-64
2023/07/04 07:02:18;;;;;;;3.00;2.17;;;;;;;;;;5033582;28;20834;-64
2023/07/04 07:04:48;;;;;;;2.33;2.33;;;;;;;;;;5033401;28;20834;-64
2023/07/04 07:07:14;;;;;;;3.40;2.17;;;;;;;;;;5033191;28;20882;-64
2023/07/04 07:09:42;;;;;;;2.00;2.00;;;;;;;;;;5032977;28;20473;-64
2023/07/04 07:12:09;;;;;;;2.37;2.37;;;;;;;;;;5031950;28;20980;-63
2023/07/04 07:14:38;;;;;;;2.83;2.70;;;;;;;;;;5033594;28;20779;-64
2023/07/04 07:17:04;;;;;;;3.03;2.23;;;;;;;;;;5033037;28;20422;-63
2023/07/04 07:19:30;;;;;;;1.93;1.87;;;;;;;;;;5033506;28;20412;-63
2023/07/04 07:21:56;;;;;;;2.77;2.57;;;;;;;;;;5033268;28;20437;-64
2023/07/04 07:24:23;;;;;;;4.13;3.93;;;;;;;;;;5033298;28;20464;-64
2023/07/04 07:26:49;;;;;;;2.30;2.20;;;;;;;;;;5032008;28;20417;-65
2023/07/04 07:29:15;;;;;;;3.10;2.37;;;;;;;;;;5032991;28;20419;-64
2023/07/04 07:31:41;;;;;;;2.47;2.30;;;;;;;;;;5033105;28;20504;-64
2023/07/04 07:34:07;;;;;;;2.67;2.50;;;;;;;;;;5033035;28;20413;-63
2023/07/04 07:36:37;;;;;;;3.97;2.33;;;;;;;;;;5032717;28;20466;-64
2023/07/04 07:39:08;;;;;;;2.47;2.37;;;;;;;;;;5032993;28;20441;-64
2023/07/04 07:41:38;;;;;;;2.60;2.50;;;;;;;;;;5033102;28;20823;-64
2023/07/04 07:44:05;;;;;;;2.10;2.07;;;;;;;;;;5032938;28;20488;-64
2023/07/04 07:46:31;;;;;;;2.20;2.20;;;;;;;;;;5033036;28;20434;-64
2023/07/04 07:48:59;;;;;;;1.90;1.80;;;;;;;;;;5033036;28;20483;-64
2023/07/04 07:51:25;;;;;;;1.87;1.87;;;;;;;;;;5032797;28;20515;-64
2023/07/04 07:53:54;;;;;;;2.00;1.90;;;;;;;;;;5032887;28;20414;-64
2023/07/04 07:56:24;;;;;;;2.60;2.40;;;;;;;;;;5032273;28;20561;-63
2023/07/04 07:58:52;;;;;;;2.37;2.27;;;;;;;;;;5032538;28;20521;-62
2023/07/04 08:01:18;;;;;;;2.80;2.50;;;;;;;;;;5032630;28;20497;-63
2023/07/04 08:03:44;;;;;;;2.70;2.50;;;;;;;;;;5032780;28;20475;-64
2023/07/04 08:06:19;;;;;;;2.87;2.30;;;;;;;;;;5032711;28;20429;-63
2023/07/04 08:08:45;;;;;;;7.03;2.30;;;;;;;;;;5032558;28;20533;-64
2023/07/04 08:11:15;;;;;;;3.10;2.40;;;;;;;;;;5032556;28;20601;-64
2023/07/04 08:13:41;;;;;;;5.30;2.30;;;;;;;;;;5032843;28;20427;-63
2023/07/04 08:16:07;;;;;;;2.40;2.40;;;;;;;;;;5032727;28;20824;-63
2023/07/04 08:18:33;;;;;;;4.57;2.53;;;;;;;;;;5032671;28;20500;-63
2023/07/04 08:21:01;;;;;;;9.70;3.20;;;;;;;;;;5032438;28;20429;-63
2023/07/04 08:23:29;;;;;;;2.37;2.17;;;;;;;;;;5031491;28;20536;-64
2023/07/04 08:25:55;;;;;;;3.43;2.23;;;;;;;;;;5032630;28;20415;-64
2023/07/04 08:28:22;;;;;;;2.13;2.03;;;;;;;;;;5032341;28;20438;-63
2023/07/04 08:30:48;;;;;;;2.37;2.27;;;;;;;;;;5032387;28;20524;-64
2023/07/04 08:33:18;;;;;;;2.80;2.60;;;;;;;;;;5032287;28;20444;-64
2023/07/04 08:36:03;;;;;;;2.13;2.03;;;;;;;;;;5032392;28;20494;-64
2023/07/04 08:38:29;;;;;;;2.40;2.30;;;;;;;;;;5032255;28;20428;-64
2023/07/04 08:40:55;;;;;;;2.47;2.37;;;;;;;;;;5031072;28;20865;-64
2023/07/04 08:43:34;;;;;;;2.97;2.10;;;;;;;;;;5032105;28;20448;-64
2023/07/04 08:46:00;;;;;;;6.07;4.57;;;;;;;;;;5032150;28;20451;-64
2023/07/04 08:48:30;;;;;;;2.30;2.20;;;;;;;;;;5032172;28;20948;-64
2023/07/04 08:50:58;;;;;;;3.13;2.50;;;;;;;;;;5032778;28;20474;-64
2023/07/04 08:53:30;;;;;;;12.10;8.40;;;;;;;;;;5032475;28;20473;-63
2023/07/04 08:56:25;;;;;;;2.63;2.53;;;;;;;;;;5032307;28;20442;-64
2023/07/04 08:58:57;;;;;;;2.53;2.10;;;;;;;;;;5031512;28;20462;-64
2023/07/04 09:01:32;;;;;;;11.13;3.47;;;;;;;;;;5030774;28;20781;-63
2023/07/04 09:04:00;;;;;;;2.40;2.30;;;;;;;;;;5032218;28;20463;-64
2023/07/04 09:06:40;;;;;;;2.33;2.33;;;;;;;;;;5032250;28;20903;-64
2023/07/04 09:09:12;;;;;;;2.40;2.30;;;;;;;;;;5034346;28;20902;-64
2023/07/04 09:11:37;;;;;;;3.03;2.33;;;;;;;;;;5035732;28;20427;-64
2023/07/04 09:14:09;;;;;;;2.60;2.07;;;;;;;;;;5035820;28;20445;-64
2023/07/04 09:16:38;;;;;;;2.10;2.03;;;;;;;;;;5035766;28;20400;-64
2023/07/04 09:19:06;;;;;;;2.13;2.03;;;;;;;;;;5035816;28;20435;-64
2023/07/04 09:21:32;;;;;;;2.27;2.20;;;;;;;;;;5035566;28;20900;-64
2023/07/04 09:24:01;;;;;;;2.57;2.47;;;;;;;;;;5035521;28;20923;-64
2023/07/04 09:26:36;;;;;;;6.63;2.73;;;;;;;;;;5035604;28;20495;-64
2023/07/04 09:29:06;;;;;;;2.40;2.30;;;;;;;;;;5035576;28;20529;-65
2023/07/04 09:31:36;;;;;;;2.37;2.27;;;;;;;;;;5035730;28;20434;-64
2023/07/04 09:34:03;;;;;;;2.67;2.50;;;;;;;;;;5035400;28;20458;-64
2023/07/04 09:36:33;;;;;;;2.40;2.30;;;;;;;;;;5035373;28;20425;-64
2023/07/04 09:39:04;;;;;;;2.80;2.70;;;;;;;;;;5035365;28;20432;-64
2023/07/04 09:41:34;;;;;;;2.60;2.40;;;;;;;;;;5035255;28;20392;-64
2023/07/04 09:44:15;;;;;;;2.47;2.37;;;;;;;;;;5035188;28;20428;-64
2023/07/04 09:46:46;;;;;;;4.07;2.77;;;;;;;;;;5035450;28;20418;-64
2023/07/04 09:49:22;;;;;;;2.77;2.60;;;;;;;;;;5035456;28;20430;-64
2023/07/04 09:51:57;;;;;;;2.07;1.93;;;;;;;;;;5035141;28;20406;-63
2023/07/04 09:54:26;;;;;;;9.70;8.70;;;;;;;;;;5035060;28;20428;-64
2023/07/04 09:56:54;;;;;;;3.30;2.33;;;;;;;;;;5034952;28;20396;-63
2023/07/04 09:59:26;;;;;;;3.80;2.17;;;;;;;;;;5035029;28;20468;-64
2023/07/04 10:01:57;;;;;;;2.40;2.23;;;;;;;;;;5034730;28;20433;-63
2023/07/04 10:04:34;;;;;;;2.40;2.30;;;;;;;;;;5034484;28;20436;-63
2023/07/04 10:07:00;;;;;;;2.60;1.73;;;;;;;;;;5034803;28;20944;-64
2023/07/04 10:09:26;;;;;;;2.87;2.30;;;;;;;;;;5034387;28;20463;-64
2023/07/04 10:12:07;;;;;;;2.83;1.77;;;;;;;;;;5034918;28;20786;-63
2023/07/04 10:14:35;;;;;;;2.13;1.93;;;;;;;;;;5034703;28;20442;-63
2023/07/04 10:17:14;;;;;;;3.67;2.50;;;;;;;;;;5034700;28;20479;-63
2023/07/04 10:19:41;;;;;;;1.90;1.80;;;;;;;;;;5034030;28;20444;-64
2023/07/04 10:22:10;;;;;;;1.83;1.80;;;;;;;;;;5034512;28;20432;-64
2023/07/04 10:24:36;;;;;;;2.70;1.80;;;;;;;;;;5034481;28;20447;-63
2023/07/04 10:27:03;;;;;;;1.63;1.63;;;;;;;;;;5034359;28;20418;-63
2023/07/04 10:29:35;;;;;;;1.77;1.67;;;;;;;;;;5034387;28;20478;-64
2023/07/04 10:32:07;;;;;;;1.30;1.30;;;;;;;;;;5034002;28;20457;-64
2023/07/04 10:34:34;;;;;;;1.43;1.43;;;;;;;;;;5034351;28;20437;-64
2023/07/04 10:37:03;;;;;;;3.60;2.10;;;;;;;;;;5033935;28;20782;-62
2023/07/04 10:39:31;;;;;;;1.70;1.70;;;;;;;;;;5033931;28;20946;-63
2023/07/04 10:42:01;;;;;;;3.13;2.00;;;;;;;;;;5033809;28;20428;-63
2023/07/04 10:44:31;;;;;;;2.27;2.13;;;;;;;;;;5034040;28;20473;-63
2023/07/04 10:46:59;;;;;;;2.37;2.20;;;;;;;;;;5032260;28;20919;-63
2023/07/04 10:49:37;;;;;;;1.70;1.70;;;;;;;;;;5033873;28;20421;-63
2023/07/04 10:52:08;;;;;;;3.83;1.70;;;;;;;;;;5033803;28;20667;-63
2023/07/04 10:54:34;;;;;;;3.10;1.57;;;;;;;;;;5034051;28;20839;-63
2023/07/04 10:57:08;;;;;;;2.30;1.50;;;;;;;;;;5033788;28;20431;-63
2023/07/04 10:59:35;;;;;;;1.53;1.53;;;;;;;;;;5033632;28;20508;-63
2023/07/04 11:02:05;;;;;;;2.27;2.17;;;;;;;;;;5033553;28;20419;-63
2023/07/04 11:04:36;;;;;;;1.33;1.23;;;;;;;;;;5033357;28;20525;-64
2023/07/04 11:07:04;;;;;;;1.67;1.60;;;;;;;;;;5033298;28;20439;-63
2023/07/04 11:09:40;;;;;;;7.13;1.70;;;;;;;;;;5033106;28;20472;-63
2023/07/04 11:12:07;;;;;;;2.83;1.47;;;;;;;;;;5033470;28;20925;-63
2023/07/04 11:14:37;;;;;;;2.17;1.97;;;;;;;;;;5032561;28;20973;-63
2023/07/04 11:17:06;;;;;;;1.83;1.70;;;;;;;;;;5033303;28;20412;-63
2023/07/04 11:19:34;;;;;;;1.90;1.53;;;;;;;;;;5033376;28;20441;-63
2023/07/04 11:22:03;;;;;;;3.23;1.67;;;;;;;;;;5033110;28;20427;-63
2023/07/04 11:24:33;;;;;;;1.30;1.30;;;;;;;;;;5033053;28;20426;-64
2023/07/04 11:27:01;;;;;;;1.80;1.70;;;;;;;;;;5032020;28;20894;-63
2023/07/04 11:29:45;;;;;;;1.53;1.50;;;;;;;;;;5031647;28;21072;-63
2023/07/04 11:32:13;;;;;;;1.50;1.50;;;;;;;;;;5032360;28;20419;-63
2023/07/04 11:34:47;;;;;;;1.53;1.53;;;;;;;;;;5031690;28;20423;-63
2023/07/04 11:37:23;;;;;;;1.73;1.73;;;;;;;;;;5033342;28;20411;-63
2023/07/04 11:39:53;;;;;;;2.20;1.63;;;;;;;;;;5033352;28;20499;-63
2023/07/04 11:42:28;;;;;;;1.80;1.70;;;;;;;;;;5033330;28;20914;-63
2023/07/04 11:45:00;;;;;;;1.47;1.47;;;;;;;;;;5032949;28;20444;-63
2023/07/04 11:47:49;;;;;;;5.10;1.53;;;;;;;;;;5032957;28;20415;-63
2023/07/04 11:50:23;;;;;;;1.60;1.60;;;;;;;;;;5032280;28;20494;-63
2023/07/04 11:52:55;;;;;;;1.30;1.30;;;;;;;;;;5032810;28;20431;-63
2023/07/04 11:55:29;;;;;;;1.43;1.43;;;;;;;;;;5032441;28;20442;-63
2023/07/04 11:57:59;;;;;;;1.70;1.57;;;;;;;;;;5032914;28;20507;-64
2023/07/04 12:00:30;;;;;;;1.90;1.60;;;;;;;;;;5032286;28;20450;-63
2023/07/04 12:02:57;;;;;;;1.37;1.27;;;;;;;;;;5032748;28;20487;-64
2023/07/04 12:05:33;;;;;;;1.67;1.67;;;;;;;;;;5032677;28;20466;-64
2023/07/04 12:08:07;;;;;;;1.70;1.40;;;;;;;;;;5032204;28;20429;-64
2023/07/04 12:10:33;;;;;;;6.30;1.70;;;;;;;;;;5032606;28;20915;-64
2023/07/04 12:13:01;;;;;;;3.10;1.73;;;;;;;;;;5032793;28;20514;-64
2023/07/04 12:15:32;;;;;;;1.83;1.73;;;;;;;;;;5032388;28;20462;-64
2023/07/04 12:18:13;;;;;;;2.50;1.80;;;;;;;;;;5032234;28;20853;-64
2023/07/04 12:20:39;;;;;;;2.10;2.00;;;;;;;;;;5032611;28;20442;-64
2023/07/04 12:23:09;;;;;;;1.33;1.33;;;;;;;;;;5032668;28;20415;-64
2023/07/04 12:25:40;;;;;;;1.27;1.20;;;;;;;;;;5032339;28;20525;-64
2023/07/04 12:28:06;;;;;;;2.30;2.20;;;;;;;;;;5032302;28;20458;-64
2023/07/04 12:30:33;;;;;;;1.80;1.60;;;;;;;;;;5032112;28;20915;-64
2023/07/04 12:32:58;;;;;;;13.00;8.87;;;;;;;;;;5031137;28;20431;-64
2023/07/04 12:35:26;;;;;;;1.90;1.80;;;;;;;;;;5031963;28;20752;-63
2023/07/04 12:37:57;;;;;;;2.40;1.57;;;;;;;;;;5032315;28;20494;-63
2023/07/04 12:40:25;;;;;;;1.60;1.50;;;;;;;;;;5032350;28;20410;-63
2023/07/04 12:42:52;;;;;;;1.73;1.63;;;;;;;;;;5034561;28;20969;-64
2023/07/04 12:45:23;;;;;;;2.27;2.17;;;;;;;;;;5036343;28;20914;-64
2023/07/04 12:47:50;;;;;;;1.50;1.50;;;;;;;;;;5036216;28;20441;-63
2023/07/04 12:50:17;;;;;;;1.17;1.17;;;;;;;;;;5036133;28;20465;-63
2023/07/04 12:52:44;;;;;;;2.10;1.20;;;;;;;;;;5036267;28;20453;-63
2023/07/04 12:55:30;;;;;;;2.00;1.17;;;;;;;;;;5036259;28;20578;-63
2023/07/04 12:57:57;;;;;;;1.23;1.23;;;;;;;;;;5036092;28;20439;-64
2023/07/04 13:00:30;;;;;;;1.30;1.20;;;;;;;;;;5035771;28;20550;-64
2023/07/04 13:02:59;;;;;;;1.10;1.10;;;;;;;;;;5034850;28;20956;-64
2023/07/04 13:05:28;;;;;;;1.07;1.07;;;;;;;;;;5035762;28;20897;-64
2023/07/04 13:07:57;;;;;;;0.97;0.97;;;;;;;;;;5035851;28;20884;-64
2023/07/04 13:10:28;;;;;;;2.63;1.27;;;;;;;;;;5035691;28;20532;-64
2023/07/04 13:12:55;;;;;;;0.93;0.93;;;;;;;;;;5035886;28;20408;-64
2023/07/04 13:15:28;;;;;;;0.90;0.90;;;;;;;;;;5034434;28;20428;-64
2023/07/04 13:18:01;;;;;;;1.30;1.30;;;;;;;;;;5035937;28;20501;-64
2023/07/04 13:20:30;;;;;;;2.80;1.30;;;;;;;;;;5035824;28;20771;-63
2023/07/04 13:23:16;;;;;;;2.30;1.53;;;;;;;;;;5035385;28;20423;-63
2023/07/04 13:25:42;;;;;;;4.83;1.10;;;;;;;;;;5035343;28;20411;-64
2023/07/04 13:28:24;;;;;;;1.57;1.57;;;;;;;;;;5035479;28;20785;-64
2023/07/04 13:30:53;;;;;;;1.47;1.00;;;;;;;;;;5034044;28;20477;-64
2023/07/04 13:33:29;;;;;;;2.43;1.17;;;;;;;;;;5036041;28;20446;-63
2023/07/04 13:36:04;;;;;;;1.00;1.00;;;;;;;;;;5035678;28;20407;-63
2023/07/04 13:38:30;;;;;;;1.10;1.10;;;;;;;;;;5035346;28;20396;-64
2023/07/04 13:41:00;;;;;;;1.27;1.10;;;;;;;;;;5035296;28;20453;-64
2023/07/04 13:43:28;;;;;;;0.90;0.90;;;;;;;;;;5035343;28;20410;-64
2023/07/04 13:45:57;;;;;;;1.80;1.00;;;;;;;;;;5035174;28;20462;-63
2023/07/04 13:48:25;;;;;;;2.90;1.10;;;;;;;;;;5035305;28;20420;-64
2023/07/04 13:50:51;;;;;;;3.53;1.23;;;;;;;;;;5035251;28;20465;-63
2023/07/04 13:53:17;;;;;;;1.03;1.03;;;;;;;;;;5033493;28;20408;-64
2023/07/04 13:55:43;;;;;;;1.50;1.50;;;;;;;;;;5034415;28;20415;-64
2023/07/04 13:58:12;;;;;;;2.90;1.10;;;;;;;;;;5035028;28;20468;-64
2023/07/04 14:00:38;;;;;;;1.30;1.30;;;;;;;;;;5035024;28;20415;-64
2023/07/04 14:03:06;;;;;;;1.30;1.30;;;;;;;;;;5034848;28;20469;-64
2023/07/04 14:05:41;;;;;;;1.03;1.03;;;;;;;;;;5034887;28;20461;-64
2023/07/04 14:08:08;;;;;;;1.27;1.17;;;;;;;;;;5034687;28;20874;-63
2023/07/04 14:10:34;;;;;;;1.37;1.03;;;;;;;;;;5034731;28;20513;-64
2023/07/04 14:13:01;;;;;;;7.33;1.57;;;;;;;;;;5034701;28;20431;-64
2023/07/04 14:15:27;;;;;;;1.37;1.37;;;;;;;;;;5034639;28;20419;-63
2023/07/04 14:17:53;;;;;;;1.23;1.13;;;;;;;;;;5034671;28;20945;-63
2023/07/04 14:20:19;;;;;;;0.83;0.83;;;;;;;;;;5034582;28;20420;-63
2023/07/04 14:22:45;;;;;;;1.20;1.20;;;;;;;;;;5034675;28;20439;-63
2023/07/04 14:25:13;;;;;;;1.00;1.00;;;;;;;;;;5034531;28;21017;-63
2023/07/04 14:27:39;;;;;;;3.57;3.37;;;;;;;;;;5034400;28;20816;-63
2023/07/04 14:30:06;;;;;;;1.13;1.13;;;;;;;;;;5034493;28;20455;-63
2023/07/04 14:32:36;;;;;;;1.20;1.20;;;;;;;;;;5034562;28;20439;-63
2023/07/04 14:35:02;;;;;;;1.93;1.00;;;;;;;;;;5034435;28;20888;-63
2023/07/04 14:37:28;;;;;;;0.70;0.70;;;;;;;;;;5034373;28;20436;-63
2023/07/04 14:39:56;;;;;;;1.13;0.67;;;;;;;;;;5034255;28;20435;-63
2023/07/04 14:42:23;;;;;;;0.97;0.83;;;;;;;;;;5034505;28;20888;-63
2023/07/04 14:44:48;;;;;;;2.10;0.90;;;;;;;;;;5034273;28;20419;-63
2023/07/04 14:47:18;;;;;;;0.80;0.80;;;;;;;;;;5034106;28;20497;-63
2023/07/04 14:49:45;;;;;;;0.90;0.90;;;;;;;;;;5032885;28;20477;-63
2023/07/04 14:52:11;;;;;;;1.20;1.10;;;;;;;;;;5034216;28;20917;-63